sensor_id;sensor_type;location;lat;lon;timestamp;P1;durP1;ratioP1;P2;durP2;ratioP2
8058;SDS011;4072;42.668;23.396;2022-11-15T00:01:23;143.67;;;88.87;;
8058;SDS011;4072;42.668;23.396;2022-11-15T00:03:53;133.47;;;85.47;;
8058;SDS011;4072;42.668;23.396;2022-11-15T00:06:21;141.37;;;92.00;;
8058;SDS011;4072;42.668;23.396;2022-11-15T00:08:50;140.77;;;87.43;;
8058;SDS011;4072;42.668;23.396;2022-11-15T00:11:19;146.17;;;91.13;;
8058;SDS011;4072;42.668;23.396;2022-11-15T00:13:50;144.30;;;92.07;;
8058;SDS011;4072;42.668;23.396;2022-11-15T00:16:22;153.40;;;93.00;;
8058;SDS011;4072;42.668;23.396;2022-11-15T00:18:53;133.40;;;88.50;;
8058;SDS011;4072;42.668;23.396;2022-11-15T00:21:21;130.97;;;85.47;;
8058;SDS011;4072;42.668;23.396;2022-11-15T00:23:50;141.67;;;86.97;;
8058;SDS011;4072;42.668;23.396;2022-11-15T00:26:22;145.60;;;89.93;;
8058;SDS011;4072;42.668;23.396;2022-11-15T00:28:51;134.00;;;81.13;;
8058;SDS011;4072;42.668;23.396;2022-11-15T00:31:19;132.13;;;83.60;;
8058;SDS011;4072;42.668;23.396;2022-11-15T00:33:47;147.50;;;89.77;;
8058;SDS011;4072;42.668;23.396;2022-11-15T00:36:19;156.07;;;100.57;;
8058;SDS011;4072;42.668;23.396;2022-11-15T00:38:47;150.90;;;96.53;;
8058;SDS011;4072;42.668;23.396;2022-11-15T00:41:15;110.37;;;65.87;;
8058;SDS011;4072;42.668;23.396;2022-11-15T00:43:45;143.07;;;91.27;;
8058;SDS011;4072;42.668;23.396;2022-11-15T00:46:13;142.23;;;91.73;;
8058;SDS011;4072;42.668;23.396;2022-11-15T00:48:44;134.13;;;86.67;;
8058;SDS011;4072;42.668;23.396;2022-11-15T00:51:12;144.03;;;90.30;;
8058;SDS011;4072;42.668;23.396;2022-11-15T00:53:42;150.23;;;94.57;;
8058;SDS011;4072;42.668;23.396;2022-11-15T00:56:11;155.30;;;99.40;;
8058;SDS011;4072;42.668;23.396;2022-11-15T00:58:39;167.43;;;101.90;;
8058;SDS011;4072;42.668;23.396;2022-11-15T01:01:08;160.63;;;101.27;;
8058;SDS011;4072;42.668;23.396;2022-11-15T01:03:37;183.13;;;111.33;;
8058;SDS011;4072;42.668;23.396;2022-11-15T01:06:07;179.07;;;110.33;;
8058;SDS011;4072;42.668;23.396;2022-11-15T01:08:35;179.70;;;108.00;;
8058;SDS011;4072;42.668;23.396;2022-11-15T01:11:06;154.07;;;95.67;;
8058;SDS011;4072;42.668;23.396;2022-11-15T01:13:36;165.43;;;100.43;;
8058;SDS011;4072;42.668;23.396;2022-11-15T01:16:05;148.37;;;94.53;;
8058;SDS011;4072;42.668;23.396;2022-11-15T01:18:35;159.23;;;99.97;;
8058;SDS011;4072;42.668;23.396;2022-11-15T01:21:07;135.47;;;86.83;;
8058;SDS011;4072;42.668;23.396;2022-11-15T01:23:36;153.83;;;95.03;;
8058;SDS011;4072;42.668;23.396;2022-11-15T01:26:09;153.43;;;97.93;;
8058;SDS011;4072;42.668;23.396;2022-11-15T01:28:39;145.00;;;92.73;;
8058;SDS011;4072;42.668;23.396;2022-11-15T01:31:09;146.50;;;91.43;;
8058;SDS011;4072;42.668;23.396;2022-11-15T01:33:40;165.20;;;99.60;;
8058;SDS011;4072;42.668;23.396;2022-11-15T01:36:10;160.97;;;100.63;;
8058;SDS011;4072;42.668;23.396;2022-11-15T01:38:40;143.40;;;87.03;;
8058;SDS011;4072;42.668;23.396;2022-11-15T01:41:15;149.40;;;99.10;;
8058;SDS011;4072;42.668;23.396;2022-11-15T01:43:46;156.83;;;98.17;;
8058;SDS011;4072;42.668;23.396;2022-11-15T01:46:19;146.07;;;89.47;;
8058;SDS011;4072;42.668;23.396;2022-11-15T01:48:52;126.30;;;78.47;;
8058;SDS011;4072;42.668;23.396;2022-11-15T01:51:24;113.87;;;72.60;;
8058;SDS011;4072;42.668;23.396;2022-11-15T01:53:56;112.70;;;64.83;;
8058;SDS011;4072;42.668;23.396;2022-11-15T01:56:32;101.97;;;60.73;;
8058;SDS011;4072;42.668;23.396;2022-11-15T01:59:04;101.63;;;62.27;;
8058;SDS011;4072;42.668;23.396;2022-11-15T02:01:36;104.90;;;66.20;;
8058;SDS011;4072;42.668;23.396;2022-11-15T02:04:06;99.47;;;62.03;;
8058;SDS011;4072;42.668;23.396;2022-11-15T02:06:39;95.40;;;61.33;;
8058;SDS011;4072;42.668;23.396;2022-11-15T02:09:09;104.17;;;64.63;;
8058;SDS011;4072;42.668;23.396;2022-11-15T02:11:45;103.90;;;62.80;;
8058;SDS011;4072;42.668;23.396;2022-11-15T02:14:16;92.60;;;61.27;;
8058;SDS011;4072;42.668;23.396;2022-11-15T02:16:51;103.60;;;60.20;;
8058;SDS011;4072;42.668;23.396;2022-11-15T02:19:38;90.63;;;54.13;;
8058;SDS011;4072;42.668;23.396;2022-11-15T02:22:30;99.83;;;62.50;;
8058;SDS011;4072;42.668;23.396;2022-11-15T02:25:13;100.33;;;60.60;;
8058;SDS011;4072;42.668;23.396;2022-11-15T02:28:03;91.53;;;55.60;;
8058;SDS011;4072;42.668;23.396;2022-11-15T02:30:55;90.10;;;55.80;;
8058;SDS011;4072;42.668;23.396;2022-11-15T02:33:34;82.20;;;52.93;;
8058;SDS011;4072;42.668;23.396;2022-11-15T02:36:08;77.77;;;50.87;;
8058;SDS011;4072;42.668;23.396;2022-11-15T02:38:40;80.17;;;49.00;;
8058;SDS011;4072;42.668;23.396;2022-11-15T02:41:16;82.03;;;50.20;;
8058;SDS011;4072;42.668;23.396;2022-11-15T02:43:48;82.93;;;51.43;;
8058;SDS011;4072;42.668;23.396;2022-11-15T02:46:28;78.67;;;50.93;;
8058;SDS011;4072;42.668;23.396;2022-11-15T02:49:18;81.70;;;52.80;;
8058;SDS011;4072;42.668;23.396;2022-11-15T02:51:47;87.03;;;57.40;;
8058;SDS011;4072;42.668;23.396;2022-11-15T02:54:20;88.63;;;55.73;;
8058;SDS011;4072;42.668;23.396;2022-11-15T02:56:49;89.03;;;53.40;;
8058;SDS011;4072;42.668;23.396;2022-11-15T02:59:35;92.90;;;52.60;;
8058;SDS011;4072;42.668;23.396;2022-11-15T03:02:18;87.70;;;52.20;;
8058;SDS011;4072;42.668;23.396;2022-11-15T03:04:58;84.00;;;51.73;;
8058;SDS011;4072;42.668;23.396;2022-11-15T03:07:34;84.97;;;49.97;;
8058;SDS011;4072;42.668;23.396;2022-11-15T03:10:08;81.10;;;50.63;;
8058;SDS011;4072;42.668;23.396;2022-11-15T03:12:43;92.10;;;51.30;;
8058;SDS011;4072;42.668;23.396;2022-11-15T03:15:18;82.73;;;51.90;;
8058;SDS011;4072;42.668;23.396;2022-11-15T03:17:51;82.40;;;52.50;;
8058;SDS011;4072;42.668;23.396;2022-11-15T03:20:23;89.13;;;49.93;;
8058;SDS011;4072;42.668;23.396;2022-11-15T03:22:54;84.90;;;50.83;;
8058;SDS011;4072;42.668;23.396;2022-11-15T03:25:26;91.17;;;51.13;;
8058;SDS011;4072;42.668;23.396;2022-11-15T03:27:58;83.63;;;50.97;;
8058;SDS011;4072;42.668;23.396;2022-11-15T03:30:32;77.77;;;49.80;;
8058;SDS011;4072;42.668;23.396;2022-11-15T03:33:09;84.00;;;49.87;;
8058;SDS011;4072;42.668;23.396;2022-11-15T03:35:40;83.53;;;53.30;;
8058;SDS011;4072;42.668;23.396;2022-11-15T03:38:14;76.27;;;49.47;;
8058;SDS011;4072;42.668;23.396;2022-11-15T03:40:49;79.60;;;48.70;;
8058;SDS011;4072;42.668;23.396;2022-11-15T03:43:24;65.37;;;43.43;;
8058;SDS011;4072;42.668;23.396;2022-11-15T03:46:01;88.80;;;50.00;;
8058;SDS011;4072;42.668;23.396;2022-11-15T03:48:37;85.57;;;50.13;;
8058;SDS011;4072;42.668;23.396;2022-11-15T03:51:11;92.37;;;52.17;;
8058;SDS011;4072;42.668;23.396;2022-11-15T03:53:40;94.50;;;52.00;;
8058;SDS011;4072;42.668;23.396;2022-11-15T03:56:09;74.93;;;43.27;;
8058;SDS011;4072;42.668;23.396;2022-11-15T03:58:38;87.50;;;48.97;;
8058;SDS011;4072;42.668;23.396;2022-11-15T04:01:06;83.03;;;47.47;;
8058;SDS011;4072;42.668;23.396;2022-11-15T04:03:40;100.83;;;48.10;;
8058;SDS011;4072;42.668;23.396;2022-11-15T04:06:08;97.10;;;54.93;;
8058;SDS011;4072;42.668;23.396;2022-11-15T04:08:36;104.37;;;52.30;;
8058;SDS011;4072;42.668;23.396;2022-11-15T04:11:04;118.70;;;57.43;;
8058;SDS011;4072;42.668;23.396;2022-11-15T04:13:33;111.93;;;54.37;;
8058;SDS011;4072;42.668;23.396;2022-11-15T04:16:03;103.07;;;51.97;;
8058;SDS011;4072;42.668;23.396;2022-11-15T04:18:31;110.47;;;50.10;;
8058;SDS011;4072;42.668;23.396;2022-11-15T04:21:02;127.37;;;55.97;;
8058;SDS011;4072;42.668;23.396;2022-11-15T04:23:49;99.43;;;55.63;;
8058;SDS011;4072;42.668;23.396;2022-11-15T04:26:34;106.57;;;55.13;;
8058;SDS011;4072;42.668;23.396;2022-11-15T04:29:03;95.37;;;54.90;;
8058;SDS011;4072;42.668;23.396;2022-11-15T04:32:16;94.93;;;48.60;;
8058;SDS011;4072;42.668;23.396;2022-11-15T04:34:44;96.47;;;51.47;;
8058;SDS011;4072;42.668;23.396;2022-11-15T04:37:12;99.60;;;53.43;;
8058;SDS011;4072;42.668;23.396;2022-11-15T04:39:39;87.47;;;49.43;;
8058;SDS011;4072;42.668;23.396;2022-11-15T04:42:06;95.70;;;51.70;;
8058;SDS011;4072;42.668;23.396;2022-11-15T04:44:34;84.80;;;49.13;;
8058;SDS011;4072;42.668;23.396;2022-11-15T04:47:02;98.07;;;52.73;;
8058;SDS011;4072;42.668;23.396;2022-11-15T04:49:32;98.40;;;46.73;;
8058;SDS011;4072;42.668;23.396;2022-11-15T04:52:00;104.90;;;46.87;;
8058;SDS011;4072;42.668;23.396;2022-11-15T04:54:29;97.03;;;43.33;;
8058;SDS011;4072;42.668;23.396;2022-11-15T04:56:59;102.77;;;45.50;;
8058;SDS011;4072;42.668;23.396;2022-11-15T04:59:27;119.30;;;46.40;;
8058;SDS011;4072;42.668;23.396;2022-11-15T05:01:55;120.07;;;44.93;;
8058;SDS011;4072;42.668;23.396;2022-11-15T05:04:22;90.03;;;45.67;;
8058;SDS011;4072;42.668;23.396;2022-11-15T05:06:51;100.50;;;50.33;;
8058;SDS011;4072;42.668;23.396;2022-11-15T05:09:19;93.57;;;47.03;;
8058;SDS011;4072;42.668;23.396;2022-11-15T05:11:48;83.40;;;46.67;;
8058;SDS011;4072;42.668;23.396;2022-11-15T05:14:16;104.17;;;48.80;;
8058;SDS011;4072;42.668;23.396;2022-11-15T05:16:44;93.60;;;48.07;;
8058;SDS011;4072;42.668;23.396;2022-11-15T05:19:12;105.03;;;48.00;;
8058;SDS011;4072;42.668;23.396;2022-11-15T05:21:41;106.73;;;46.07;;
8058;SDS011;4072;42.668;23.396;2022-11-15T05:24:10;109.67;;;45.07;;
8058;SDS011;4072;42.668;23.396;2022-11-15T05:26:38;113.03;;;41.70;;
8058;SDS011;4072;42.668;23.396;2022-11-15T05:29:08;106.90;;;40.73;;
8058;SDS011;4072;42.668;23.396;2022-11-15T05:31:39;83.93;;;31.87;;
8058;SDS011;4072;42.668;23.396;2022-11-15T05:34:07;76.43;;;34.67;;
8058;SDS011;4072;42.668;23.396;2022-11-15T05:36:36;79.87;;;34.43;;
8058;SDS011;4072;42.668;23.396;2022-11-15T05:39:04;72.10;;;32.40;;
8058;SDS011;4072;42.668;23.396;2022-11-15T05:41:38;89.57;;;31.43;;
8058;SDS011;4072;42.668;23.396;2022-11-15T05:44:07;78.63;;;30.67;;
8058;SDS011;4072;42.668;23.396;2022-11-15T05:46:37;63.57;;;26.97;;
8058;SDS011;4072;42.668;23.396;2022-11-15T05:49:07;53.57;;;24.43;;
8058;SDS011;4072;42.668;23.396;2022-11-15T05:51:36;53.70;;;25.90;;
8058;SDS011;4072;42.668;23.396;2022-11-15T05:54:04;54.27;;;26.23;;
8058;SDS011;4072;42.668;23.396;2022-11-15T05:56:31;49.20;;;24.33;;
8058;SDS011;4072;42.668;23.396;2022-11-15T05:59:03;74.83;;;27.33;;
8058;SDS011;4072;42.668;23.396;2022-11-15T06:01:31;65.70;;;29.53;;
8058;SDS011;4072;42.668;23.396;2022-11-15T06:03:59;64.60;;;29.50;;
8058;SDS011;4072;42.668;23.396;2022-11-15T06:06:27;72.83;;;29.63;;
8058;SDS011;4072;42.668;23.396;2022-11-15T06:08:56;74.83;;;33.97;;
8058;SDS011;4072;42.668;23.396;2022-11-15T06:11:24;63.63;;;31.43;;
8058;SDS011;4072;42.668;23.396;2022-11-15T06:13:52;68.57;;;32.20;;
8058;SDS011;4072;42.668;23.396;2022-11-15T06:16:22;49.57;;;24.20;;
8058;SDS011;4072;42.668;23.396;2022-11-15T06:18:50;65.30;;;29.13;;
8058;SDS011;4072;42.668;23.396;2022-11-15T06:21:18;95.33;;;29.80;;
8058;SDS011;4072;42.668;23.396;2022-11-15T06:23:46;62.23;;;31.00;;
8058;SDS011;4072;42.668;23.396;2022-11-15T06:26:14;63.60;;;29.17;;
8058;SDS011;4072;42.668;23.396;2022-11-15T06:28:42;64.43;;;29.90;;
8058;SDS011;4072;42.668;23.396;2022-11-15T06:31:11;58.23;;;29.73;;
8058;SDS011;4072;42.668;23.396;2022-11-15T06:33:40;71.03;;;30.73;;
8058;SDS011;4072;42.668;23.396;2022-11-15T06:36:09;60.43;;;30.17;;
8058;SDS011;4072;42.668;23.396;2022-11-15T06:38:43;54.57;;;28.07;;
8058;SDS011;4072;42.668;23.396;2022-11-15T06:41:12;61.53;;;27.20;;
8058;SDS011;4072;42.668;23.396;2022-11-15T06:43:40;53.47;;;25.53;;
8058;SDS011;4072;42.668;23.396;2022-11-15T06:46:08;66.73;;;28.60;;
8058;SDS011;4072;42.668;23.396;2022-11-15T06:48:36;51.17;;;25.63;;
8058;SDS011;4072;42.668;23.396;2022-11-15T06:51:06;53.07;;;26.93;;
8058;SDS011;4072;42.668;23.396;2022-11-15T06:53:34;59.63;;;29.37;;
8058;SDS011;4072;42.668;23.396;2022-11-15T06:56:03;49.33;;;25.50;;
8058;SDS011;4072;42.668;23.396;2022-11-15T06:58:31;42.23;;;22.70;;
8058;SDS011;4072;42.668;23.396;2022-11-15T07:01:00;31.97;;;19.40;;
8058;SDS011;4072;42.668;23.396;2022-11-15T07:03:28;31.23;;;17.97;;
8058;SDS011;4072;42.668;23.396;2022-11-15T07:05:56;33.63;;;19.93;;
8058;SDS011;4072;42.668;23.396;2022-11-15T07:08:34;33.40;;;20.13;;
8058;SDS011;4072;42.668;23.396;2022-11-15T07:11:02;25.93;;;18.43;;
8058;SDS011;4072;42.668;23.396;2022-11-15T07:13:31;28.50;;;17.67;;
8058;SDS011;4072;42.668;23.396;2022-11-15T07:16:01;34.73;;;19.93;;
8058;SDS011;4072;42.668;23.396;2022-11-15T07:18:29;26.80;;;17.73;;
8058;SDS011;4072;42.668;23.396;2022-11-15T07:21:00;25.50;;;16.40;;
8058;SDS011;4072;42.668;23.396;2022-11-15T07:23:28;30.90;;;17.70;;
8058;SDS011;4072;42.668;23.396;2022-11-15T07:25:58;24.10;;;15.53;;
8058;SDS011;4072;42.668;23.396;2022-11-15T07:28:26;27.67;;;16.60;;
8058;SDS011;4072;42.668;23.396;2022-11-15T07:30:54;30.60;;;18.43;;
8058;SDS011;4072;42.668;23.396;2022-11-15T07:33:22;28.87;;;19.43;;
8058;SDS011;4072;42.668;23.396;2022-11-15T07:35:50;24.80;;;17.73;;
8058;SDS011;4072;42.668;23.396;2022-11-15T07:38:19;24.67;;;18.50;;
8058;SDS011;4072;42.668;23.396;2022-11-15T07:40:47;30.53;;;18.10;;
8058;SDS011;4072;42.668;23.396;2022-11-15T07:43:16;25.77;;;17.07;;
8058;SDS011;4072;42.668;23.396;2022-11-15T07:45:44;27.43;;;19.70;;
8058;SDS011;4072;42.668;23.396;2022-11-15T07:48:12;34.17;;;21.20;;
8058;SDS011;4072;42.668;23.396;2022-11-15T07:50:40;33.40;;;19.30;;
8058;SDS011;4072;42.668;23.396;2022-11-15T07:53:09;28.37;;;19.30;;
8058;SDS011;4072;42.668;23.396;2022-11-15T07:55:37;28.87;;;19.27;;
8058;SDS011;4072;42.668;23.396;2022-11-15T07:58:07;34.87;;;20.47;;
8058;SDS011;4072;42.668;23.396;2022-11-15T08:00:39;30.20;;;19.43;;
8058;SDS011;4072;42.668;23.396;2022-11-15T08:03:07;32.47;;;19.20;;
8058;SDS011;4072;42.668;23.396;2022-11-15T08:05:36;25.97;;;18.17;;
8058;SDS011;4072;42.668;23.396;2022-11-15T08:08:04;28.83;;;19.00;;
8058;SDS011;4072;42.668;23.396;2022-11-15T08:10:33;32.83;;;19.07;;
8058;SDS011;4072;42.668;23.396;2022-11-15T08:13:06;32.93;;;19.87;;
8058;SDS011;4072;42.668;23.396;2022-11-15T08:15:42;35.57;;;22.30;;
8058;SDS011;4072;42.668;23.396;2022-11-15T08:18:12;31.70;;;21.27;;
8058;SDS011;4072;42.668;23.396;2022-11-15T08:20:41;34.07;;;23.83;;
8058;SDS011;4072;42.668;23.396;2022-11-15T08:23:10;35.03;;;21.57;;
8058;SDS011;4072;42.668;23.396;2022-11-15T08:25:38;37.27;;;25.00;;
8058;SDS011;4072;42.668;23.396;2022-11-15T08:28:06;40.03;;;24.03;;
8058;SDS011;4072;42.668;23.396;2022-11-15T08:30:35;44.60;;;25.50;;
8058;SDS011;4072;42.668;23.396;2022-11-15T08:33:08;45.77;;;27.30;;
8058;SDS011;4072;42.668;23.396;2022-11-15T08:35:38;43.30;;;26.33;;
8058;SDS011;4072;42.668;23.396;2022-11-15T08:38:06;49.17;;;27.10;;
8058;SDS011;4072;42.668;23.396;2022-11-15T08:40:34;50.33;;;28.83;;
8058;SDS011;4072;42.668;23.396;2022-11-15T08:43:03;49.13;;;27.97;;
8058;SDS011;4072;42.668;23.396;2022-11-15T08:45:30;47.87;;;28.47;;
8058;SDS011;4072;42.668;23.396;2022-11-15T08:48:00;51.40;;;30.33;;
8058;SDS011;4072;42.668;23.396;2022-11-15T08:50:29;52.83;;;30.50;;
8058;SDS011;4072;42.668;23.396;2022-11-15T08:52:57;54.00;;;31.93;;
8058;SDS011;4072;42.668;23.396;2022-11-15T08:55:25;46.03;;;29.60;;
8058;SDS011;4072;42.668;23.396;2022-11-15T08:57:53;56.07;;;31.53;;
8058;SDS011;4072;42.668;23.396;2022-11-15T09:00:24;52.83;;;31.10;;
8058;SDS011;4072;42.668;23.396;2022-11-15T09:02:52;54.30;;;33.30;;
8058;SDS011;4072;42.668;23.396;2022-11-15T09:05:20;52.10;;;29.63;;
8058;SDS011;4072;42.668;23.396;2022-11-15T09:07:53;60.03;;;32.93;;
8058;SDS011;4072;42.668;23.396;2022-11-15T09:10:21;54.50;;;34.33;;
8058;SDS011;4072;42.668;23.396;2022-11-15T09:12:49;56.10;;;32.10;;
8058;SDS011;4072;42.668;23.396;2022-11-15T09:15:17;50.80;;;32.93;;
8058;SDS011;4072;42.668;23.396;2022-11-15T09:17:47;58.87;;;35.93;;
8058;SDS011;4072;42.668;23.396;2022-11-15T09:20:15;56.70;;;31.80;;
8058;SDS011;4072;42.668;23.396;2022-11-15T09:22:43;63.07;;;34.93;;
8058;SDS011;4072;42.668;23.396;2022-11-15T09:25:12;54.57;;;33.83;;
8058;SDS011;4072;42.668;23.396;2022-11-15T09:27:42;60.40;;;35.20;;
8058;SDS011;4072;42.668;23.396;2022-11-15T09:30:27;61.67;;;36.37;;
8058;SDS011;4072;42.668;23.396;2022-11-15T09:32:56;59.30;;;37.30;;
8058;SDS011;4072;42.668;23.396;2022-11-15T09:35:24;61.13;;;34.90;;
8058;SDS011;4072;42.668;23.396;2022-11-15T09:37:52;57.67;;;33.40;;
8058;SDS011;4072;42.668;23.396;2022-11-15T09:40:23;61.03;;;36.83;;
8058;SDS011;4072;42.668;23.396;2022-11-15T09:42:57;56.50;;;34.67;;
8058;SDS011;4072;42.668;23.396;2022-11-15T09:45:30;61.50;;;37.53;;
8058;SDS011;4072;42.668;23.396;2022-11-15T09:50:46;66.47;;;39.17;;
8058;SDS011;4072;42.668;23.396;2022-11-15T09:53:17;70.33;;;39.13;;
8058;SDS011;4072;42.668;23.396;2022-11-15T09:56:14;69.27;;;39.30;;
8058;SDS011;4072;42.668;23.396;2022-11-15T09:58:44;60.37;;;34.63;;
8058;SDS011;4072;42.668;23.396;2022-11-15T10:01:17;66.30;;;37.43;;
8058;SDS011;4072;42.668;23.396;2022-11-15T10:03:47;60.70;;;35.30;;
8058;SDS011;4072;42.668;23.396;2022-11-15T10:06:21;59.90;;;38.37;;
8058;SDS011;4072;42.668;23.396;2022-11-15T10:08:51;64.67;;;39.87;;
8058;SDS011;4072;42.668;23.396;2022-11-15T10:11:22;66.73;;;38.27;;
8058;SDS011;4072;42.668;23.396;2022-11-15T10:14:09;67.00;;;36.63;;
8058;SDS011;4072;42.668;23.396;2022-11-15T10:16:46;65.90;;;38.37;;
8058;SDS011;4072;42.668;23.396;2022-11-15T10:19:19;63.37;;;35.13;;
8058;SDS011;4072;42.668;23.396;2022-11-15T10:21:50;70.93;;;40.80;;
8058;SDS011;4072;42.668;23.396;2022-11-15T10:24:24;67.47;;;40.30;;
8058;SDS011;4072;42.668;23.396;2022-11-15T10:26:55;72.63;;;40.50;;
8058;SDS011;4072;42.668;23.396;2022-11-15T10:29:24;78.93;;;44.53;;
8058;SDS011;4072;42.668;23.396;2022-11-15T10:31:53;75.00;;;41.27;;
8058;SDS011;4072;42.668;23.396;2022-11-15T10:34:21;74.87;;;42.87;;
8058;SDS011;4072;42.668;23.396;2022-11-15T10:36:54;67.87;;;41.03;;
8058;SDS011;4072;42.668;23.396;2022-11-15T10:39:22;76.57;;;43.13;;
8058;SDS011;4072;42.668;23.396;2022-11-15T10:42:17;75.60;;;42.17;;
8058;SDS011;4072;42.668;23.396;2022-11-15T10:44:45;70.03;;;39.83;;
8058;SDS011;4072;42.668;23.396;2022-11-15T10:50:05;70.93;;;41.27;;
8058;SDS011;4072;42.668;23.396;2022-11-15T10:52:34;71.13;;;41.57;;
8058;SDS011;4072;42.668;23.396;2022-11-15T10:55:04;64.60;;;38.30;;
8058;SDS011;4072;42.668;23.396;2022-11-15T10:57:35;73.47;;;41.93;;
8058;SDS011;4072;42.668;23.396;2022-11-15T11:00:04;67.13;;;40.40;;
8058;SDS011;4072;42.668;23.396;2022-11-15T11:02:34;67.27;;;39.77;;
8058;SDS011;4072;42.668;23.396;2022-11-15T11:05:06;78.73;;;43.57;;
8058;SDS011;4072;42.668;23.396;2022-11-15T11:07:55;75.57;;;41.70;;
8058;SDS011;4072;42.668;23.396;2022-11-15T11:10:23;68.20;;;39.30;;
8058;SDS011;4072;42.668;23.396;2022-11-15T11:13:21;70.70;;;39.17;;
8058;SDS011;4072;42.668;23.396;2022-11-15T11:15:59;62.57;;;38.20;;
8058;SDS011;4072;42.668;23.396;2022-11-15T11:18:32;68.80;;;35.93;;
8058;SDS011;4072;42.668;23.396;2022-11-15T11:21:02;71.47;;;39.77;;
8058;SDS011;4072;42.668;23.396;2022-11-15T11:23:37;64.53;;;38.70;;
8058;SDS011;4072;42.668;23.396;2022-11-15T11:26:15;62.97;;;38.07;;
8058;SDS011;4072;42.668;23.396;2022-11-15T11:28:48;64.97;;;38.90;;
8058;SDS011;4072;42.668;23.396;2022-11-15T11:31:23;66.33;;;37.10;;
8058;SDS011;4072;42.668;23.396;2022-11-15T11:33:57;60.07;;;37.73;;
8058;SDS011;4072;42.668;23.396;2022-11-15T11:36:32;62.20;;;38.47;;
8058;SDS011;4072;42.668;23.396;2022-11-15T11:39:09;63.50;;;37.03;;
8058;SDS011;4072;42.668;23.396;2022-11-15T11:41:42;51.83;;;34.23;;
8058;SDS011;4072;42.668;23.396;2022-11-15T11:44:24;54.53;;;34.23;;
8058;SDS011;4072;42.668;23.396;2022-11-15T11:46:54;55.20;;;36.17;;
8058;SDS011;4072;42.668;23.396;2022-11-15T11:49:24;59.37;;;35.40;;
8058;SDS011;4072;42.668;23.396;2022-11-15T11:51:55;58.40;;;36.00;;
8058;SDS011;4072;42.668;23.396;2022-11-15T11:54:25;54.80;;;34.43;;
8058;SDS011;4072;42.668;23.396;2022-11-15T11:56:55;59.93;;;37.30;;
8058;SDS011;4072;42.668;23.396;2022-11-15T11:59:31;56.90;;;34.60;;
8058;SDS011;4072;42.668;23.396;2022-11-15T12:02:07;54.40;;;34.47;;
8058;SDS011;4072;42.668;23.396;2022-11-15T12:04:37;60.90;;;37.63;;
8058;SDS011;4072;42.668;23.396;2022-11-15T12:07:08;59.87;;;33.80;;
8058;SDS011;4072;42.668;23.396;2022-11-15T12:09:39;60.23;;;36.90;;
8058;SDS011;4072;42.668;23.396;2022-11-15T12:12:10;45.50;;;28.67;;
8058;SDS011;4072;42.668;23.396;2022-11-15T12:14:42;53.80;;;34.27;;
8058;SDS011;4072;42.668;23.396;2022-11-15T12:17:12;49.43;;;32.83;;
8058;SDS011;4072;42.668;23.396;2022-11-15T12:19:40;49.03;;;30.33;;
8058;SDS011;4072;42.668;23.396;2022-11-15T12:22:10;53.13;;;31.60;;
8058;SDS011;4072;42.668;23.396;2022-11-15T12:24:41;56.90;;;36.27;;
8058;SDS011;4072;42.668;23.396;2022-11-15T12:27:13;56.27;;;34.47;;
8058;SDS011;4072;42.668;23.396;2022-11-15T12:29:54;52.37;;;33.47;;
8058;SDS011;4072;42.668;23.396;2022-11-15T12:32:26;57.13;;;33.83;;
8058;SDS011;4072;42.668;23.396;2022-11-15T12:34:55;57.13;;;34.20;;
8058;SDS011;4072;42.668;23.396;2022-11-15T12:37:34;57.37;;;37.37;;
8058;SDS011;4072;42.668;23.396;2022-11-15T12:40:04;49.07;;;28.30;;
8058;SDS011;4072;42.668;23.396;2022-11-15T12:42:36;51.50;;;32.77;;
8058;SDS011;4072;42.668;23.396;2022-11-15T12:45:23;56.17;;;35.40;;
8058;SDS011;4072;42.668;23.396;2022-11-15T12:47:51;55.30;;;33.53;;
8058;SDS011;4072;42.668;23.396;2022-11-15T12:55:50;57.33;;;34.93;;
8058;SDS011;4072;42.668;23.396;2022-11-15T12:58:40;53.83;;;35.07;;
8058;SDS011;4072;42.668;23.396;2022-11-15T13:01:12;50.10;;;31.60;;
8058;SDS011;4072;42.668;23.396;2022-11-15T13:04:08;50.63;;;32.47;;
8058;SDS011;4072;42.668;23.396;2022-11-15T13:06:38;49.43;;;31.57;;
8058;SDS011;4072;42.668;23.396;2022-11-15T13:11:50;55.17;;;34.67;;
8058;SDS011;4072;42.668;23.396;2022-11-15T13:17:15;39.30;;;23.43;;
8058;SDS011;4072;42.668;23.396;2022-11-15T13:19:44;47.60;;;32.63;;
8058;SDS011;4072;42.668;23.396;2022-11-15T13:22:13;63.23;;;34.60;;
8058;SDS011;4072;42.668;23.396;2022-11-15T13:24:58;50.27;;;32.00;;
8058;SDS011;4072;42.668;23.396;2022-11-15T13:27:26;46.90;;;29.53;;
8058;SDS011;4072;42.668;23.396;2022-11-15T13:29:54;52.47;;;33.63;;
8058;SDS011;4072;42.668;23.396;2022-11-15T13:32:24;52.10;;;32.40;;
8058;SDS011;4072;42.668;23.396;2022-11-15T13:34:52;56.90;;;34.37;;
8058;SDS011;4072;42.668;23.396;2022-11-15T13:37:29;53.57;;;32.93;;
8058;SDS011;4072;42.668;23.396;2022-11-15T13:40:17;49.63;;;32.20;;
8058;SDS011;4072;42.668;23.396;2022-11-15T13:42:46;49.57;;;32.93;;
8058;SDS011;4072;42.668;23.396;2022-11-15T13:45:15;54.50;;;32.50;;
8058;SDS011;4072;42.668;23.396;2022-11-15T13:47:51;52.37;;;31.80;;
8058;SDS011;4072;42.668;23.396;2022-11-15T13:50:20;48.83;;;32.80;;
8058;SDS011;4072;42.668;23.396;2022-11-15T13:52:48;52.07;;;31.03;;
8058;SDS011;4072;42.668;23.396;2022-11-15T13:55:17;50.50;;;31.93;;
8058;SDS011;4072;42.668;23.396;2022-11-15T13:57:46;51.50;;;31.30;;
8058;SDS011;4072;42.668;23.396;2022-11-15T14:00:25;56.87;;;35.27;;
8058;SDS011;4072;42.668;23.396;2022-11-15T14:02:55;52.27;;;32.60;;
8058;SDS011;4072;42.668;23.396;2022-11-15T14:05:24;53.20;;;33.20;;
8058;SDS011;4072;42.668;23.396;2022-11-15T14:07:52;53.60;;;33.10;;
8058;SDS011;4072;42.668;23.396;2022-11-15T14:10:30;55.10;;;35.20;;
8058;SDS011;4072;42.668;23.396;2022-11-15T14:12:58;54.30;;;34.73;;
8058;SDS011;4072;42.668;23.396;2022-11-15T14:15:28;52.50;;;32.87;;
8058;SDS011;4072;42.668;23.396;2022-11-15T14:17:57;58.63;;;34.90;;
8058;SDS011;4072;42.668;23.396;2022-11-15T14:20:26;49.00;;;34.80;;
8058;SDS011;4072;42.668;23.396;2022-11-15T14:22:55;56.43;;;33.97;;
8058;SDS011;4072;42.668;23.396;2022-11-15T14:25:23;57.40;;;34.60;;
8058;SDS011;4072;42.668;23.396;2022-11-15T14:28:10;62.43;;;39.13;;
8058;SDS011;4072;42.668;23.396;2022-11-15T14:30:38;57.50;;;38.03;;
8058;SDS011;4072;42.668;23.396;2022-11-15T14:33:23;70.00;;;44.37;;
8058;SDS011;4072;42.668;23.396;2022-11-15T14:35:51;63.53;;;41.17;;
8058;SDS011;4072;42.668;23.396;2022-11-15T14:38:21;70.37;;;39.77;;
8058;SDS011;4072;42.668;23.396;2022-11-15T14:40:49;60.47;;;37.33;;
8058;SDS011;4072;42.668;23.396;2022-11-15T14:43:17;64.50;;;38.70;;
8058;SDS011;4072;42.668;23.396;2022-11-15T14:45:44;69.10;;;40.23;;
8058;SDS011;4072;42.668;23.396;2022-11-15T14:48:12;68.27;;;40.43;;
8058;SDS011;4072;42.668;23.396;2022-11-15T14:50:41;64.07;;;41.10;;
8058;SDS011;4072;42.668;23.396;2022-11-15T14:53:11;84.93;;;58.67;;
8058;SDS011;4072;42.668;23.396;2022-11-15T14:55:39;102.83;;;69.40;;
8058;SDS011;4072;42.668;23.396;2022-11-15T14:58:07;88.47;;;59.57;;
8058;SDS011;4072;42.668;23.396;2022-11-15T15:00:36;91.63;;;59.63;;
8058;SDS011;4072;42.668;23.396;2022-11-15T15:03:04;93.23;;;59.97;;
8058;SDS011;4072;42.668;23.396;2022-11-15T15:05:32;98.70;;;59.13;;
8058;SDS011;4072;42.668;23.396;2022-11-15T15:08:02;106.27;;;66.93;;
8058;SDS011;4072;42.668;23.396;2022-11-15T15:10:31;104.37;;;65.87;;
8058;SDS011;4072;42.668;23.396;2022-11-15T15:13:10;94.73;;;59.67;;